< < Back
Terminal Aerodrome Forecast


Current Version              Previous Versions:   1  2  3  4  5  6  7  8  9  

Terminal Aerodrome Forecast

481
FTUS42 KGSP 210520
TAFHKY
TAF
KHKY 210520Z 2106/2206 00000KT P6SM OVC019
     FM210900 00000KT 4SM BR OVC019
      TEMPO 2111/2113 2SM BR OVC009
     FM211400 06003KT P6SM OVC021
     FM220400 08004KT P6SM -RA BKN019=



Latest METAR

674
SAUS70 KWBC 210500 RRD
MTRHKY
METAR KHKY 210453Z AUTO 00000KT 10SM OVC019 05/00 A3023 RMK AO2 SLP233
T00500000 400670033


USA.gov is the U.S. government's official web portal to all federal, state and local government web resources and services.